Time;durP1;ratioP1;P1;durP2;ratioP2;P2;SDS_P1;SDS_P2;PMS_P1;PMS_P2;Temp;Humidity;BMP_temperature;BMP_pressure;BME280_temperature;BME280_humidity;BME280_pressure;Samples;Min_cycle;Max_cycle;Signal;HPM_P1;HPM_P2
2023/06/30 00:01:39;;;;;;;5.72;1.60;;;18.20;93.10;;;;;;5040141;28;20084;-84
2023/06/30 00:04:06;;;;;;;4.68;1.42;;;18.10;93.10;;;;;;5041861;28;20141;-84
2023/06/30 00:06:34;;;;;;;7.78;1.95;;;18.10;93.20;;;;;;5041166;28;20094;-84
2023/06/30 00:09:03;;;;;;;6.47;1.70;;;18.00;93.10;;;;;;5051038;28;20052;-83
2023/06/30 00:11:29;;;;;;;6.35;1.60;;;18.00;93.30;;;;;;5052944;28;20084;-83
2023/06/30 00:13:58;;;;;;;5.07;1.67;;;17.90;93.30;;;;;;5040151;28;20077;-84
2023/06/30 00:16:27;;;;;;;5.47;1.60;;;17.90;93.20;;;;;;5050185;28;20044;-84
2023/06/30 00:19:00;;;;;;;7.30;1.80;;;17.90;93.10;;;;;;5041766;28;20055;-83
2023/06/30 00:21:26;;;;;;;5.78;1.60;;;17.80;93.20;;;;;;5046476;28;20056;-83
2023/06/30 00:23:52;;;;;;;8.35;1.70;;;17.80;93.30;;;;;;5037974;28;20469;-83
2023/06/30 00:26:17;;;;;;;6.15;1.60;;;17.80;93.30;;;;;;5041289;28;20791;-83
2023/06/30 00:28:43;;;;;;;6.85;1.63;;;17.80;93.30;;;;;;5051852;28;20049;-83
2023/06/30 00:31:08;;;;;;;5.53;1.80;;;17.70;93.40;;;;;;5051869;28;20053;-83
2023/06/30 00:33:35;;;;;;;5.00;1.70;;;17.70;93.40;;;;;;5041821;28;20045;-83
2023/06/30 00:36:02;;;;;;;7.63;1.77;;;17.60;93.40;;;;;;5040719;28;20037;-83
2023/06/30 00:38:28;;;;;;;8.02;1.58;;;17.60;93.40;;;;;;5043161;28;20479;-83
2023/06/30 00:40:56;;;;;;;5.70;1.60;;;17.60;93.40;;;;;;5032804;28;20037;-83
2023/06/30 00:43:21;;;;;;;6.43;1.70;;;17.60;93.40;;;;;;5040499;28;20487;-83
2023/06/30 00:45:48;;;;;;;6.50;1.60;;;17.60;93.50;;;;;;5046251;28;20049;-83
2023/06/30 00:48:13;;;;;;;6.68;2.08;;;17.50;93.30;;;;;;5038667;28;20048;-83
2023/06/30 00:50:39;;;;;;;6.65;1.70;;;17.50;93.40;;;;;;5050903;28;20095;-83
2023/06/30 00:53:05;;;;;;;6.57;1.70;;;17.40;93.30;;;;;;5040820;28;20045;-83
2023/06/30 00:55:32;;;;;;;6.72;1.90;;;17.40;93.30;;;;;;5053179;28;20076;-84
2023/06/30 00:57:57;;;;;;;5.32;1.60;;;17.40;93.30;;;;;;5038471;28;20053;-84
2023/06/30 01:00:24;;;;;;;5.35;1.73;;;17.30;93.30;;;;;;5054949;28;20055;-84
2023/06/30 01:03:13;;;;;;;5.53;1.60;;;17.30;93.50;;;;;;5054170;28;20051;-84
2023/06/30 01:05:59;;;;;;;6.00;1.60;;;17.30;93.40;;;;;;5037700;28;20037;-83
2023/06/30 01:08:48;;;;;;;6.47;1.70;;;17.30;93.30;;;;;;5041854;28;20080;-83
2023/06/30 01:11:14;;;;;;;5.57;1.70;;;17.20;93.20;;;;;;5056638;28;20047;-84
2023/06/30 01:13:42;;;;;;;6.78;2.03;;;17.20;93.50;;;;;;5052132;28;20490;-83
2023/06/30 01:16:09;;;;;;;5.65;1.70;;;17.20;93.60;;;;;;5048440;28;20052;-83
2023/06/30 01:18:37;;;;;;;5.95;1.70;;;17.20;93.60;;;;;;5050897;28;20046;-84
2023/06/30 01:21:04;;;;;;;4.07;1.60;;;17.20;93.60;;;;;;5049986;28;20132;-83
2023/06/30 01:23:42;;;;;;;5.25;1.65;;;17.10;93.70;;;;;;5051618;28;20455;-83
2023/06/30 01:26:08;;;;;;;5.45;1.67;;;17.10;93.60;;;;;;5050075;28;20051;-83
2023/06/30 01:28:34;;;;;;;7.40;1.60;;;17.00;93.70;;;;;;5052003;28;20124;-83
2023/06/30 01:31:01;;;;;;;6.00;1.80;;;17.00;93.60;;;;;;5039877;28;20029;-84
2023/06/30 01:33:28;;;;;;;6.18;1.52;;;17.00;93.60;;;;;;5054633;28;20049;-83
2023/06/30 01:35:54;;;;;;;6.28;1.90;;;17.00;93.50;;;;;;5034970;28;20141;-83
2023/06/30 01:38:20;;;;;;;5.72;1.67;;;17.00;93.60;;;;;;5036543;28;20041;-83
2023/06/30 01:40:46;;;;;;;6.10;1.60;;;16.90;93.60;;;;;;5036329;28;20053;-84
2023/06/30 01:43:12;;;;;;;7.20;1.83;;;17.00;93.60;;;;;;5035866;28;20380;-84
2023/06/30 01:45:39;;;;;;;5.15;1.52;;;16.90;93.60;;;;;;5048922;28;20501;-83
2023/06/30 01:48:05;;;;;;;5.28;1.70;;;16.90;93.50;;;;;;5035087;28;20053;-83
2023/06/30 01:50:32;;;;;;;5.13;1.58;;;16.90;93.40;;;;;;5038030;28;20105;-83
2023/06/30 01:53:01;;;;;;;5.57;1.63;;;16.80;93.40;;;;;;5052150;28;20037;-83
2023/06/30 01:55:27;;;;;;;5.25;1.55;;;16.80;93.40;;;;;;5041529;28;20088;-83
2023/06/30 01:57:53;;;;;;;3.78;1.48;;;16.80;93.50;;;;;;5036213;28;20076;-83
2023/06/30 02:00:18;;;;;;;4.95;1.60;;;16.70;93.50;;;;;;5045192;28;20497;-84
2023/06/30 02:02:44;;;;;;;6.72;1.85;;;16.70;93.40;;;;;;5055426;28;20048;-83
2023/06/30 02:05:11;;;;;;;5.55;1.77;;;16.70;93.40;;;;;;5042179;28;20037;-82
2023/06/30 02:07:37;;;;;;;5.18;1.55;;;16.60;93.40;;;;;;5035627;28;20056;-82
2023/06/30 02:10:03;;;;;;;7.07;1.80;;;16.60;93.40;;;;;;5044940;28;20041;-83
2023/06/30 02:12:29;;;;;;;5.88;1.58;;;16.60;93.50;;;;;;5034073;28;20506;-83
2023/06/30 02:14:54;;;;;;;4.72;1.55;;;16.60;93.60;;;;;;5041007;28;20398;-83
2023/06/30 02:17:33;;;;;;;5.30;1.58;;;16.60;93.60;;;;;;5036564;28;20468;-83
2023/06/30 02:19:59;;;;;;;5.00;1.50;;;16.50;93.60;;;;;;5046208;28;20061;-83
2023/06/30 02:22:25;;;;;;;7.72;1.75;;;16.50;93.60;;;;;;5037597;28;20033;-83
2023/06/30 02:24:53;;;;;;;6.68;1.60;;;16.50;93.70;;;;;;5050219;28;20435;-83
2023/06/30 02:27:19;;;;;;;5.30;1.40;;;16.50;93.60;;;;;;5034246;28;20042;-83
2023/06/30 02:29:45;;;;;;;5.32;1.20;;;16.50;93.70;;;;;;5047114;28;20064;-83
2023/06/30 02:32:10;;;;;;;4.88;1.60;;;16.40;93.60;;;;;;5047594;28;20494;-83
2023/06/30 02:34:36;;;;;;;5.25;1.50;;;16.40;93.60;;;;;;5035832;28;20084;-83
2023/06/30 02:37:02;;;;;;;4.05;1.50;;;16.40;93.50;;;;;;5054800;28;20041;-83
2023/06/30 02:39:27;;;;;;;5.50;1.55;;;16.40;93.50;;;;;;5041564;28;20098;-83
2023/06/30 02:41:53;;;;;;;6.88;1.55;;;16.30;93.50;;;;;;5054150;28;20498;-83
2023/06/30 02:44:18;;;;;;;4.90;1.77;;;16.30;93.40;;;;;;5053892;28;20136;-84
2023/06/30 02:46:45;;;;;;;5.47;1.55;;;16.30;93.30;;;;;;5050350;28;20045;-83
2023/06/30 02:49:11;;;;;;;5.88;1.48;;;16.20;93.20;;;;;;5045880;28;20398;-83
2023/06/30 02:51:36;;;;;;;5.10;1.50;;;16.20;93.40;;;;;;5051789;28;20123;-82
2023/06/30 02:54:03;;;;;;;5.72;1.58;;;16.10;93.40;;;;;;5054515;28;20095;-83
2023/06/30 02:56:28;;;;;;;7.55;1.67;;;16.10;93.40;;;;;;5039225;28;20053;-82
2023/06/30 02:58:54;;;;;;;6.43;1.60;;;16.10;93.30;;;;;;5041801;28;20041;-83
2023/06/30 03:01:21;;;;;;;6.32;1.67;;;16.00;93.50;;;;;;5051296;28;20135;-83
2023/06/30 03:03:50;;;;;;;5.95;1.60;;;16.00;93.60;;;;;;5041870;28;20498;-82
2023/06/30 03:06:16;;;;;;;4.47;1.40;;;16.00;93.30;;;;;;5045091;28;20056;-82
2023/06/30 03:08:42;;;;;;;4.07;1.20;;;15.90;93.50;;;;;;5048700;28;20041;-82
2023/06/30 03:11:08;;;;;;;4.93;1.50;;;15.90;93.60;;;;;;5043091;28;20037;-82
2023/06/30 03:13:33;;;;;;;4.97;1.42;;;15.80;93.70;;;;;;5053724;28;20057;-82
2023/06/30 03:15:59;;;;;;;3.97;1.50;;;15.80;93.70;;;;;;5046392;28;20395;-82
2023/06/30 03:18:25;;;;;;;4.95;1.30;;;15.80;93.80;;;;;;5019820;28;20049;-82
2023/06/30 03:20:51;;;;;;;3.97;1.42;;;15.80;93.90;;;;;;5038883;28;20483;-82
2023/06/30 03:23:18;;;;;;;4.80;1.73;;;15.80;93.90;;;;;;5054051;28;20047;-83
2023/06/30 03:25:44;;;;;;;4.97;1.65;;;15.80;93.80;;;;;;5049942;28;20125;-83
2023/06/30 03:28:09;;;;;;;4.82;1.45;;;15.70;93.80;;;;;;5038462;28;20068;-83
2023/06/30 03:30:35;;;;;;;4.47;1.50;;;15.70;93.90;;;;;;5050960;28;20485;-83
2023/06/30 03:33:00;;;;;;;4.75;1.38;;;15.60;93.80;;;;;;5051701;28;20047;-82
2023/06/30 03:35:26;;;;;;;5.30;1.67;;;15.70;93.90;;;;;;5053333;28;20037;-82
2023/06/30 03:37:52;;;;;;;5.32;1.30;;;15.60;93.90;;;;;;5034974;28;20084;-83
2023/06/30 03:40:17;;;;;;;5.88;1.45;;;15.60;93.90;;;;;;5053870;28;20441;-83
2023/06/30 03:42:43;;;;;;;4.70;1.40;;;15.60;93.90;;;;;;5035947;28;20046;-83
2023/06/30 03:45:09;;;;;;;4.13;1.35;;;15.60;93.80;;;;;;5033623;28;20061;-83
2023/06/30 03:47:35;;;;;;;3.88;1.50;;;15.60;93.90;;;;;;5039521;28;20514;-83
2023/06/30 03:50:01;;;;;;;5.60;1.50;;;15.50;93.80;;;;;;5053390;28;20045;-84
2023/06/30 03:52:26;;;;;;;4.95;1.38;;;15.50;93.80;;;;;;5047532;28;20053;-83
2023/06/30 03:54:52;;;;;;;5.80;1.40;;;15.50;93.80;;;;;;5053371;28;20045;-83
2023/06/30 03:57:17;;;;;;;4.43;1.40;;;15.50;93.80;;;;;;5039943;28;20045;-83
2023/06/30 03:59:43;;;;;;;4.32;1.80;;;15.40;93.80;;;;;;5032408;28;20089;-83
2023/06/30 04:02:08;;;;;;;3.40;1.42;;;15.40;93.90;;;;;;5043796;28;20040;-83
2023/06/30 04:04:37;;;;;;;6.68;1.65;;;15.40;93.90;;;;;;5033583;28;20049;-83
2023/06/30 04:07:05;;;;;;;6.57;1.70;;;15.40;93.90;;;;;;5040655;28;20041;-83
2023/06/30 04:09:31;;;;;;;5.35;1.52;;;15.40;93.90;;;;;;5053483;28;20135;-83
2023/06/30 04:11:57;;;;;;;4.35;1.50;;;15.30;93.90;;;;;;5050439;28;20128;-83
2023/06/30 04:14:23;;;;;;;7.10;1.75;;;15.30;93.70;;;;;;5053124;28;20044;-83
2023/06/30 04:16:48;;;;;;;3.92;1.48;;;15.20;93.50;;;;;;5047426;28;20087;-83
2023/06/30 04:19:14;;;;;;;4.20;1.23;;;15.20;93.60;;;;;;5033180;28;20049;-83
2023/06/30 04:21:40;;;;;;;5.75;1.45;;;15.10;93.40;;;;;;5035275;28;20488;-83
2023/06/30 04:24:07;;;;;;;5.00;1.55;;;15.10;93.30;;;;;;5052469;28;20088;-82
2023/06/30 04:26:33;;;;;;;4.57;1.27;;;15.00;93.30;;;;;;5042506;28;20372;-82
2023/06/30 04:28:58;;;;;;;3.88;1.40;;;15.00;93.50;;;;;;5052587;28;20139;-82
2023/06/30 04:31:26;;;;;;;5.03;1.60;;;14.90;93.50;;;;;;5042749;28;20132;-82
2023/06/30 04:33:52;;;;;;;3.95;1.30;;;14.90;93.40;;;;;;5032185;28;20045;-83
2023/06/30 04:36:20;;;;;;;5.32;1.50;;;14.90;93.30;;;;;;5034425;28;20041;-82
2023/06/30 04:38:48;;;;;;;3.15;1.20;;;14.80;93.20;;;;;;5033693;28;20053;-83
2023/06/30 04:41:15;;;;;;;4.20;1.48;;;14.80;93.20;;;;;;5040585;28;20053;-82
2023/06/30 04:43:40;;;;;;;4.78;1.45;;;14.80;93.10;;;;;;5033221;28;20504;-82
2023/06/30 04:46:06;;;;;;;4.95;1.48;;;14.80;93.10;;;;;;5037932;28;20158;-82
2023/06/30 04:48:33;;;;;;;3.17;1.33;;;14.70;93.00;;;;;;5045749;28;20047;-83
2023/06/30 04:51:02;;;;;;;3.42;1.30;;;14.70;93.10;;;;;;5032376;28;20073;-82
2023/06/30 04:53:28;;;;;;;5.20;1.35;;;14.70;93.00;;;;;;5033683;28;20401;-82
2023/06/30 04:55:53;;;;;;;6.50;1.80;;;14.70;93.00;;;;;;5041268;28;20041;-83
2023/06/30 04:58:22;;;;;;;5.40;1.30;;;14.70;93.30;;;;;;5033161;28;20042;-83
2023/06/30 05:00:50;;;;;;;4.63;1.30;;;14.70;93.10;;;;;;5042875;28;20040;-83
2023/06/30 05:03:19;;;;;;;4.25;1.30;;;14.60;92.80;;;;;;5038576;28;20057;-83
2023/06/30 05:05:44;;;;;;;5.72;1.70;;;14.60;92.80;;;;;;5042207;28;20056;-85
2023/06/30 05:08:14;;;;;;;4.45;1.52;;;14.70;93.20;;;;;;5035839;28;20395;-83
2023/06/30 05:10:40;;;;;;;10.68;2.10;;;14.60;93.40;;;;;;5037287;28;20053;-82
2023/06/30 05:13:05;;;;;;;9.15;1.80;;;14.70;93.70;;;;;;5052874;28;20111;-85
2023/06/30 05:15:31;;;;;;;6.35;2.10;;;14.60;93.60;;;;;;5063494;28;20119;-82
2023/06/30 05:17:57;;;;;;;7.72;1.92;;;14.60;93.70;;;;;;5051605;28;20051;-81
2023/06/30 05:20:25;;;;;;;6.40;1.90;;;14.60;93.90;;;;;;5047439;28;20064;-81
2023/06/30 05:22:51;;;;;;;4.45;1.45;;;14.60;93.90;;;;;;5032840;28;20136;-81
2023/06/30 05:25:17;;;;;;;8.15;1.70;;;14.60;93.80;;;;;;5040741;28;20180;-83
2023/06/30 05:27:42;;;;;;;5.30;1.50;;;14.60;93.90;;;;;;5040959;28;20399;-81
2023/06/30 05:30:08;;;;;;;4.32;1.20;;;14.60;94.00;;;;;;5036301;28;20049;-86
2023/06/30 05:32:35;;;;;;;6.53;1.40;;;14.60;94.00;;;;;;5046786;28;20052;-85
2023/06/30 05:35:00;;;;;;;5.65;1.52;;;14.60;93.80;;;;;;5052791;28;20479;-86
2023/06/30 05:37:26;;;;;;;5.70;1.85;;;14.70;94.00;;;;;;5055409;28;20041;-86
2023/06/30 05:39:51;;;;;;;5.82;1.60;;;14.70;94.40;;;;;;5054458;28;20494;-86
2023/06/30 05:42:17;;;;;;;8.20;1.60;;;14.70;94.30;;;;;;5048379;28;20053;-85
2023/06/30 05:44:46;;;;;;;7.75;2.10;;;14.70;94.20;;;;;;5045128;28;20526;-83
2023/06/30 05:47:12;;;;;;;7.18;1.90;;;14.80;94.80;;;;;;5043421;28;20105;-84
2023/06/30 05:49:40;;;;;;;6.30;1.88;;;14.80;95.30;;;;;;5046271;28;20045;-84
2023/06/30 05:52:07;;;;;;;6.75;1.92;;;14.90;95.10;;;;;;5045042;28;20088;-84
2023/06/30 05:54:32;;;;;;;7.03;1.77;;;14.90;95.30;;;;;;5045792;28;20501;-85
2023/06/30 05:57:01;;;;;;;7.25;2.00;;;14.90;95.00;;;;;;5051143;28;20040;-85
2023/06/30 05:59:28;;;;;;;5.90;1.95;;;15.00;95.00;;;;;;5047925;28;20387;-84
2023/06/30 06:01:54;;;;;;;6.00;1.58;;;15.00;95.10;;;;;;5044675;28;20478;-85
2023/06/30 06:04:20;;;;;;;6.53;1.65;;;15.00;94.50;;;;;;5049740;28;20051;-85
2023/06/30 06:06:48;;;;;;;4.97;1.58;;;15.00;94.50;;;;;;5042932;28;20041;-85
2023/06/30 06:09:18;;;;;;;5.15;1.85;;;15.10;94.60;;;;;;5045396;28;20045;-86
2023/06/30 06:11:44;;;;;;;6.60;2.00;;;15.10;94.50;;;;;;5043486;28;20049;-85
2023/06/30 06:14:10;;;;;;;16.45;3.00;;;15.10;95.10;;;;;;5052013;28;20040;-85
2023/06/30 06:16:35;;;;;;;8.45;2.05;;;15.20;96.00;;;;;;5044492;28;20546;-86
2023/06/30 06:19:01;;;;;;;7.72;2.45;;;15.20;95.80;;;;;;5044112;28;20045;-88
2023/06/30 06:21:27;;;;;;;7.88;2.05;;;15.20;96.00;;;;;;5042161;28;20051;-87
2023/06/30 06:23:56;;;;;;;6.95;2.10;;;15.30;96.40;;;;;;5051439;28;20041;-87
2023/06/30 06:26:22;;;;;;;7.18;1.67;;;15.30;96.30;;;;;;5040612;28;20056;-86
2023/06/30 06:28:48;;;;;;;7.47;2.10;;;15.40;96.20;;;;;;5046935;28;20441;-86
2023/06/30 06:31:16;;;;;;;8.18;2.05;;;15.40;96.00;;;;;;5044605;28;20091;-87
2023/06/30 06:33:42;;;;;;;5.18;1.80;;;15.50;96.60;;;;;;5048173;28;20067;-87
2023/06/30 06:36:08;;;;;;;6.68;1.70;;;15.60;96.60;;;;;;5054535;28;20049;-86
2023/06/30 06:38:33;;;;;;;8.88;1.70;;;15.60;96.30;;;;;;5066468;28;20489;-86
2023/06/30 06:40:59;;;;;;;6.43;1.60;;;15.70;96.30;;;;;;5074782;28;20385;-86
2023/06/30 06:43:26;;;;;;;12.63;2.05;;;15.80;96.50;;;;;;5041423;28;20751;-87
2023/06/30 06:45:54;;;;;;;6.50;1.52;;;15.90;96.70;;;;;;5047443;28;20067;-86
2023/06/30 06:48:28;;;;;;;5.88;1.13;;;16.00;96.50;;;;;;5044327;28;20037;-87
2023/06/30 06:50:58;;;;;;;5.00;1.25;;;16.00;96.20;;;;;;5047682;28;20045;-87
2023/06/30 06:53:35;;;;;;;10.23;1.58;;;16.10;96.00;;;;;;5052956;28;20068;-87
2023/06/30 06:56:02;;;;;;;9.50;1.73;;;16.20;96.50;;;;;;5047328;28;20044;-87
2023/06/30 06:58:50;;;;;;;10.27;1.70;;;16.30;96.20;;;;;;5045945;28;20045;-85
2023/06/30 07:01:15;;;;;;;9.63;1.73;;;16.30;96.10;;;;;;5041820;28;20146;-85
2023/06/30 07:03:41;;;;;;;6.63;1.58;;;16.40;95.90;;;;;;5042578;28;20081;-87
2023/06/30 07:06:07;;;;;;;8.23;1.35;;;16.50;95.90;;;;;;5045334;28;20041;-85
2023/06/30 07:08:36;;;;;;;12.52;1.70;;;16.60;95.70;;;;;;5054736;28;20048;-84
2023/06/30 07:11:04;;;;;;;9.38;1.40;;;16.60;95.60;;;;;;5049666;28;20446;-84
2023/06/30 07:13:30;;;;;;;4.72;1.23;;;16.70;95.50;;;;;;5042681;28;20052;-86
2023/06/30 07:15:58;;;;;;;6.15;1.70;;;16.80;95.30;;;;;;5048886;28;20057;-86
2023/06/30 07:18:25;;;;;;;11.13;1.70;;;16.90;95.40;;;;;;5057095;28;20041;-85
2023/06/30 07:20:52;;;;;;;5.45;1.40;;;16.90;95.30;;;;;;5047916;28;20049;-86
2023/06/30 07:23:19;;;;;;;12.38;1.80;;;17.00;95.00;;;;;;5047029;28;20049;-86
2023/06/30 07:25:45;;;;;;;10.10;1.50;;;17.00;95.20;;;;;;5039714;28;20084;-84
2023/06/30 07:28:11;;;;;;;8.82;1.40;;;17.10;95.20;;;;;;5051149;28;20049;-86
2023/06/30 07:30:36;;;;;;;7.55;1.25;;;17.20;94.60;;;;;;5042329;28;20041;-86
2023/06/30 07:33:03;;;;;;;7.80;1.67;;;17.20;94.50;;;;;;5038771;28;20048;-86
2023/06/30 07:35:31;;;;;;;5.82;1.20;;;17.20;94.50;;;;;;5048509;28;20052;-86
2023/06/30 07:37:57;;;;;;;4.65;1.35;;;17.30;94.60;;;;;;5064972;28;20407;-87
2023/06/30 07:40:23;;;;;;;6.88;1.40;;;17.40;94.40;;;;;;5049113;28;20046;-87
2023/06/30 07:42:48;;;;;;;5.82;1.20;;;17.50;94.20;;;;;;5046123;28;20041;-85
2023/06/30 07:45:15;;;;;;;7.25;1.27;;;17.60;93.90;;;;;;5052755;28;20581;-87
2023/06/30 07:47:43;;;;;;;5.57;1.23;;;17.60;93.70;;;;;;5054491;28;20094;-86
2023/06/30 07:50:11;;;;;;;5.93;1.45;;;17.70;93.80;;;;;;5053792;28;20045;-87
2023/06/30 07:52:42;;;;;;;4.03;1.05;;;17.70;93.20;;;;;;5052476;28;20496;-86
2023/06/30 07:55:08;;;;;;;6.00;1.23;;;17.80;93.10;;;;;;5051872;28;20036;-85
2023/06/30 07:57:34;;;;;;;10.00;1.48;;;17.90;93.20;;;;;;5052683;28;20489;-87
2023/06/30 08:00:00;;;;;;;6.90;1.30;;;17.90;93.30;;;;;;5053454;28;20041;-87
2023/06/30 08:02:25;;;;;;;6.78;1.33;;;18.00;93.20;;;;;;5038950;28;20045;-86
2023/06/30 08:04:51;;;;;;;7.10;1.50;;;18.00;93.10;;;;;;5053152;28;20049;-87
2023/06/30 08:07:16;;;;;;;5.25;1.23;;;18.10;92.90;;;;;;5051168;28;20049;-87
2023/06/30 08:09:42;;;;;;;4.53;0.95;;;18.10;92.90;;;;;;5049989;28;20041;-87
2023/06/30 08:12:09;;;;;;;5.70;1.33;;;18.30;92.90;;;;;;5052727;28;20106;-86
2023/06/30 08:14:35;;;;;;;5.68;1.30;;;18.30;92.70;;;;;;5047675;28;20048;-87
2023/06/30 08:17:07;;;;;;;7.25;1.05;;;18.40;92.80;;;;;;5051284;28;20049;-88
2023/06/30 08:19:33;;;;;;;5.80;1.45;;;18.50;92.60;;;;;;5052797;28;20045;-87
2023/06/30 08:22:01;;;;;;;6.20;1.50;;;18.60;92.10;;;;;;5044171;28;20398;-87
2023/06/30 08:24:30;;;;;;;4.53;1.00;;;18.70;92.50;;;;;;5045016;28;20068;-86
2023/06/30 08:26:55;;;;;;;6.45;1.25;;;18.70;92.30;;;;;;5043404;28;20517;-86
2023/06/30 08:29:21;;;;;;;3.08;0.82;;;18.80;91.80;;;;;;5045400;28;20135;-88
2023/06/30 08:31:47;;;;;;;4.88;1.00;;;18.80;91.50;;;;;;5047488;28;20483;-89
2023/06/30 08:34:12;;;;;;;4.20;1.10;;;18.90;91.60;;;;;;5045576;28;20045;-87
2023/06/30 08:36:38;;;;;;;4.90;1.10;;;19.00;91.20;;;;;;5044053;28;20398;-86
2023/06/30 08:39:07;;;;;;;3.72;1.20;;;19.00;90.60;;;;;;5039948;28;20418;-87
2023/06/30 08:41:37;;;;;;;4.60;1.10;;;19.10;90.70;;;;;;5050526;28;20367;-88
2023/06/30 08:44:03;;;;;;;8.52;1.13;;;19.10;90.60;;;;;;5036152;28;20053;-88
2023/06/30 08:46:29;;;;;;;6.20;1.20;;;19.20;90.60;;;;;;5045311;28;20052;-88
2023/06/30 08:48:55;;;;;;;5.22;1.05;;;19.20;90.60;;;;;;5038718;28;20112;-87
2023/06/30 08:51:22;;;;;;;5.00;1.08;;;19.20;90.80;;;;;;5039644;28;20512;-89
2023/06/30 08:53:49;;;;;;;4.22;1.10;;;19.30;90.70;;;;;;5046386;28;20414;-90
2023/06/30 08:56:16;;;;;;;3.55;1.00;;;19.30;90.40;;;;;;5039751;28;20049;-89
2023/06/30 08:58:42;;;;;;;7.43;0.93;;;19.30;90.20;;;;;;5047412;28;20123;-90
2023/06/30 09:01:08;;;;;;;4.53;0.93;;;19.40;89.00;;;;;;5045777;28;20080;-91
2023/06/30 09:03:38;;;;;;;4.93;1.00;;;19.40;88.70;;;;;;5047302;28;20049;-89
2023/06/30 09:06:05;;;;;;;5.90;1.10;;;19.40;89.00;;;;;;5048982;28;20499;-90
2023/06/30 09:09:09;;;;;;;3.55;0.88;;;19.50;88.60;;;;;;5048567;28;20067;-89
2023/06/30 09:11:36;;;;;;;3.85;1.00;;;19.50;88.80;;;;;;5052314;28;20039;-89
2023/06/30 09:14:03;;;;;;;3.65;0.82;;;19.60;87.00;;;;;;5047481;28;20045;-88
2023/06/30 09:16:33;;;;;;;4.47;1.00;;;19.70;86.70;;;;;;5044744;28;20487;-88
2023/06/30 09:18:59;;;;;;;3.90;1.05;;;19.80;86.80;;;;;;5044830;28;20486;-89
2023/06/30 09:21:26;;;;;;;4.63;1.20;;;19.80;86.90;;;;;;5046360;28;20041;-88
2023/06/30 09:23:51;;;;;;;4.97;1.00;;;19.90;86.00;;;;;;5045715;28;20525;-89
2023/06/30 09:26:18;;;;;;;4.20;0.80;;;20.00;85.60;;;;;;5042385;28;20072;-89
2023/06/30 09:28:45;;;;;;;5.93;1.05;;;20.00;86.80;;;;;;5031298;28;20037;-89
2023/06/30 09:31:14;;;;;;;2.80;0.70;;;20.10;84.70;;;;;;5047358;28;20056;-88
2023/06/30 09:33:42;;;;;;;5.20;1.05;;;20.10;87.10;;;;;;5051539;28;20044;-87
2023/06/30 09:36:07;;;;;;;5.35;1.02;;;20.20;86.30;;;;;;5039014;28;20052;-89
2023/06/30 09:38:34;;;;;;;6.05;1.20;;;20.20;83.60;;;;;;5055441;28;20048;-90
2023/06/30 09:41:04;;;;;;;5.38;0.98;;;20.30;82.70;;;;;;5047897;28;20507;-87
2023/06/30 09:43:29;;;;;;;4.28;1.27;;;20.30;80.80;;;;;;5042915;28;20076;-87
2023/06/30 09:45:57;;;;;;;4.88;1.20;;;20.30;81.90;;;;;;5042138;28;20189;-87
2023/06/30 09:48:43;;;;;;;4.50;1.00;;;20.30;82.40;;;;;;5050073;28;20053;-90
2023/06/30 09:51:19;;;;;;;8.27;1.50;;;20.40;84.50;;;;;;5051272;28;20049;-88
2023/06/30 09:53:45;;;;;;;4.90;1.10;;;20.50;84.30;;;;;;5055772;28;20360;-87
2023/06/30 09:56:22;;;;;;;4.05;1.08;;;20.60;85.20;;;;;;5044678;28;20136;-88
2023/06/30 09:58:58;;;;;;;6.75;1.23;;;20.60;86.30;;;;;;5047133;28;20137;-88
2023/06/30 10:01:24;;;;;;;5.18;1.00;;;20.60;85.20;;;;;;5052786;28;20049;-88
2023/06/30 10:03:54;;;;;;;5.20;1.05;;;20.60;85.60;;;;;;5049837;28;20049;-87
2023/06/30 10:06:23;;;;;;;4.85;1.10;;;20.70;86.30;;;;;;5049083;28;20052;-87
2023/06/30 10:08:52;;;;;;;4.55;0.93;;;20.70;85.60;;;;;;5046188;28;20091;-87
2023/06/30 10:11:22;;;;;;;7.15;0.95;;;20.70;86.00;;;;;;5070477;28;20494;-87
2023/06/30 10:13:53;;;;;;;3.53;1.00;;;20.80;82.90;;;;;;5053931;28;20033;-87
2023/06/30 10:16:20;;;;;;;5.90;1.20;;;20.80;85.30;;;;;;5054114;28;20076;-87
2023/06/30 10:18:51;;;;;;;6.38;1.02;;;20.90;83.60;;;;;;5044196;28;20429;-87
2023/06/30 10:21:16;;;;;;;6.60;1.00;;;21.00;78.90;;;;;;5044323;28;20387;-89
2023/06/30 10:23:43;;;;;;;4.65;1.05;;;21.10;78.80;;;;;;5050778;28;20052;-88
2023/06/30 10:26:12;;;;;;;3.00;1.00;;;21.10;81.90;;;;;;5036441;28;20045;-88
2023/06/30 10:28:39;;;;;;;5.75;0.90;;;21.30;78.90;;;;;;5037212;28;20046;-88
2023/06/30 10:31:05;;;;;;;4.20;1.15;;;21.30;75.70;;;;;;5035887;28;20380;-88
2023/06/30 10:33:31;;;;;;;5.30;1.20;;;21.40;73.90;;;;;;5036005;28;20048;-88
2023/06/30 10:35:59;;;;;;;10.07;1.52;;;21.50;73.80;;;;;;5036060;28;20477;-89
2023/06/30 10:38:25;;;;;;;4.60;1.25;;;21.60;73.90;;;;;;5035961;28;20491;-88
2023/06/30 10:41:13;;;;;;;5.07;1.10;;;21.70;74.40;;;;;;5050104;28;20126;-88
2023/06/30 10:44:07;;;;;;;4.65;1.20;;;21.70;74.20;;;;;;5048188;28;20041;-88
2023/06/30 10:46:52;;;;;;;4.28;1.05;;;21.70;70.10;;;;;;5054395;28;20479;-87
2023/06/30 10:49:18;;;;;;;4.68;1.10;;;21.80;69.90;;;;;;5047170;28;20099;-88
2023/06/30 10:51:51;;;;;;;7.28;1.00;;;21.80;69.40;;;;;;5041732;28;20033;-87
2023/06/30 10:54:28;;;;;;;7.80;1.20;;;21.80;69.80;;;;;;5048070;28;20079;-87
2023/06/30 10:57:35;;;;;;;5.22;1.10;;;21.80;70.60;;;;;;5061991;28;20041;-90
2023/06/30 11:00:10;;;;;;;5.63;0.93;;;21.90;67.30;;;;;;4987300;28;20133;-89
2023/06/30 11:02:53;;;;;;;4.47;1.05;;;21.90;74.00;;;;;;5050629;28;20045;-89
2023/06/30 11:05:24;;;;;;;4.97;1.05;;;22.00;70.30;;;;;;5049347;28;20048;-94
2023/06/30 11:08:03;;;;;;;5.13;1.27;;;22.00;69.80;;;;;;5054040;28;20083;-91
2023/06/30 11:10:32;;;;;;;6.82;1.30;;;22.10;72.70;;;;;;5052108;28;20470;-89
2023/06/30 11:12:59;;;;;;;3.45;0.95;;;22.10;67.40;;;;;;5052467;28;20052;-88
2023/06/30 11:15:28;;;;;;;2.90;0.90;;;22.00;69.60;;;;;;5052988;28;20048;-89
2023/06/30 11:17:54;;;;;;;6.68;1.00;;;22.00;72.30;;;;;;5034608;28;20046;-90
2023/06/30 11:20:26;;;;;;;3.75;0.93;;;22.00;73.90;;;;;;5034738;28;20046;-90
2023/06/30 11:22:58;;;;;;;4.53;1.25;;;22.00;75.60;;;;;;5034234;28;20480;-90
2023/06/30 11:25:24;;;;;;;8.02;1.20;;;22.00;72.70;;;;;;5034772;28;20049;-90
2023/06/30 11:27:50;;;;;;;6.53;1.13;;;22.00;70.90;;;;;;5034824;28;20072;-89
2023/06/30 11:30:18;;;;;;;3.47;0.98;;;22.10;69.70;;;;;;5034439;28;20530;-89
2023/06/30 11:32:46;;;;;;;3.28;1.10;;;22.10;76.20;;;;;;5034443;28;20399;-89
2023/06/30 11:35:12;;;;;;;6.22;1.25;;;22.20;76.30;;;;;;5033945;28;20038;-90
2023/06/30 11:37:38;;;;;;;5.57;1.23;;;22.30;73.20;;;;;;5034153;28;20049;-90
2023/06/30 11:40:08;;;;;;;5.20;1.10;;;22.40;73.90;;;;;;5034549;28;20038;-88
2023/06/30 11:42:39;;;;;;;5.25;1.17;;;22.50;70.80;;;;;;5035093;28;20407;-88
2023/06/30 11:45:06;;;;;;;6.97;1.27;;;22.60;71.90;;;;;;5034274;28;20581;-87
2023/06/30 11:47:34;;;;;;;2.83;1.00;;;22.60;67.50;;;;;;5033245;28;20053;-88
2023/06/30 11:50:09;;;;;;;5.07;1.42;;;22.60;68.40;;;;;;5044470;28;20045;-88
2023/06/30 11:52:38;;;;;;;5.93;1.00;;;22.70;65.40;;;;;;5041320;28;20046;-88
2023/06/30 11:55:07;;;;;;;4.15;1.10;;;22.70;65.50;;;;;;5056254;28;20049;-87
2023/06/30 11:57:37;;;;;;;3.95;1.20;;;22.70;72.20;;;;;;5053874;28;20053;-87
2023/06/30 12:00:13;;;;;;;5.00;1.35;;;22.80;76.40;;;;;;5040369;28;20491;-86
2023/06/30 12:02:46;;;;;;;5.78;1.33;;;22.90;77.60;;;;;;5053796;28;20067;-87
2023/06/30 12:05:13;;;;;;;5.88;1.02;;;22.90;74.50;;;;;;5051969;28;20182;-86
2023/06/30 12:07:40;;;;;;;7.05;1.65;;;23.00;76.60;;;;;;5042728;28;20045;-87
2023/06/30 12:10:06;;;;;;;4.85;1.40;;;23.00;72.00;;;;;;5050380;28;20102;-86
2023/06/30 12:12:32;;;;;;;5.38;1.23;;;23.00;69.10;;;;;;5052045;28;20076;-86
2023/06/30 12:14:58;;;;;;;6.85;1.20;;;23.00;66.40;;;;;;5053239;28;20087;-86
2023/06/30 12:17:29;;;;;;;3.78;1.20;;;23.00;64.30;;;;;;5055088;28;20048;-85
2023/06/30 12:19:55;;;;;;;2.78;1.00;;;23.00;68.40;;;;;;5046581;28;20051;-83
2023/06/30 12:22:27;;;;;;;6.78;1.30;;;23.10;72.40;;;;;;5050163;28;20116;-83
2023/06/30 12:24:58;;;;;;;4.82;1.02;;;23.10;70.40;;;;;;5052649;28;20040;-84
2023/06/30 12:27:27;;;;;;;3.63;1.30;;;23.20;73.80;;;;;;5037496;28;20041;-83
2023/06/30 12:29:55;;;;;;;6.75;1.70;;;23.20;69.10;;;;;;5051307;28;20037;-84
2023/06/30 12:32:22;;;;;;;4.53;1.10;;;23.20;64.70;;;;;;5043580;28;20053;-84
2023/06/30 12:34:48;;;;;;;6.22;1.30;;;23.20;63.70;;;;;;5046130;28;20045;-85
2023/06/30 12:37:18;;;;;;;4.75;1.27;;;23.20;64.10;;;;;;5047101;28;20067;-84
2023/06/30 12:39:47;;;;;;;4.28;1.45;;;23.10;62.80;;;;;;5051180;28;20458;-86
2023/06/30 12:42:13;;;;;;;6.65;1.40;;;23.20;62.70;;;;;;5051279;28;20041;-85
2023/06/30 12:44:38;;;;;;;4.93;1.38;;;23.20;61.00;;;;;;5048031;28;20060;-85
2023/06/30 12:47:06;;;;;;;6.22;1.33;;;23.10;65.30;;;;;;5055407;28;20049;-86
2023/06/30 12:49:33;;;;;;;5.40;1.63;;;23.20;65.30;;;;;;5057558;28;20053;-86